createdAt,value
2022-11-16T00:00:06.190Z,12.00
2022-11-16T00:02:34.689Z,12.00
2022-11-16T00:05:03.131Z,12.00
2022-11-16T00:07:32.151Z,12.00
2022-11-16T00:10:00.651Z,12.10
2022-11-16T00:12:28.886Z,12.10
2022-11-16T00:14:57.065Z,12.10
2022-11-16T00:17:27.072Z,12.10
2022-11-16T00:19:55.032Z,12.10
2022-11-16T00:22:23.305Z,12.00
2022-11-16T00:24:51.241Z,12.00
2022-11-16T00:27:19.926Z,12.10
2022-11-16T00:29:47.842Z,12.00
2022-11-16T00:32:16.287Z,12.00
2022-11-16T00:34:44.199Z,12.00
2022-11-16T00:37:12.808Z,12.10
2022-11-16T00:39:40.816Z,12.10
2022-11-16T00:42:13.346Z,12.00
2022-11-16T00:44:41.236Z,12.00
2022-11-16T00:47:09.582Z,12.00
2022-11-16T00:49:38.550Z,12.10
2022-11-16T00:52:06.799Z,12.00
2022-11-16T00:54:35.348Z,12.10
2022-11-16T00:57:03.712Z,12.10
2022-11-16T00:59:32.632Z,12.10
2022-11-16T01:02:00.672Z,12.10
2022-11-16T01:04:28.889Z,12.00
2022-11-16T01:06:57.561Z,12.00
2022-11-16T01:09:25.898Z,12.00
2022-11-16T01:12:08.822Z,12.00
2022-11-16T01:14:46.108Z,12.10
2022-11-16T01:17:15.470Z,12.10
2022-11-16T01:19:44.097Z,12.10
2022-11-16T01:22:12.237Z,12.10
2022-11-16T01:24:40.282Z,12.00
2022-11-16T01:27:08.649Z,12.00
2022-11-16T01:29:39.563Z,12.00
2022-11-16T01:32:08.099Z,12.00
2022-11-16T01:34:37.180Z,12.00
2022-11-16T01:37:14.218Z,12.00
2022-11-16T01:39:43.934Z,12.00
2022-11-16T01:42:19.556Z,12.00
2022-11-16T01:44:48.532Z,12.10
2022-11-16T01:47:45.495Z,12.20
2022-11-16T01:50:19.068Z,12.20
2022-11-16T01:52:55.329Z,12.20
2022-11-16T01:55:25.790Z,12.20
2022-11-16T01:58:27.555Z,12.10
2022-11-16T02:01:28.861Z,12.10
2022-11-16T02:04:01.411Z,12.10
2022-11-16T02:06:41.251Z,12.10
2022-11-16T02:09:55.285Z,12.20
2022-11-16T02:12:54.861Z,12.20
2022-11-16T02:15:44.598Z,12.20
2022-11-16T02:18:35.133Z,12.20
2022-11-16T02:21:33.627Z,12.20
2022-11-16T02:24:35.227Z,12.20
2022-11-16T02:27:06.243Z,12.10
2022-11-16T02:29:47.790Z,12.20
2022-11-16T02:32:34.438Z,12.20
2022-11-16T02:35:20.321Z,12.10
2022-11-16T02:38:05.172Z,12.10
2022-11-16T02:40:36.337Z,12.10
2022-11-16T02:43:09.188Z,12.10
2022-11-16T02:45:48.109Z,12.20
2022-11-16T02:48:22.161Z,12.20
2022-11-16T02:50:53.292Z,12.30
2022-11-16T02:53:23.698Z,12.30
2022-11-16T02:55:53.317Z,12.30
2022-11-16T02:58:25.170Z,12.30
2022-11-16T03:01:06.057Z,12.30
2022-11-16T03:03:57.585Z,12.30
2022-11-16T03:06:33.224Z,12.30
2022-11-16T03:09:08.732Z,12.20
2022-11-16T03:12:00.466Z,12.20
2022-11-16T03:14:40.073Z,12.10
2022-11-16T03:17:16.374Z,12.10
2022-11-16T03:19:57.050Z,12.10
2022-11-16T03:22:41.588Z,12.10
2022-11-16T03:25:13.221Z,12.10
2022-11-16T03:27:56.346Z,12.10
2022-11-16T03:30:28.447Z,12.20
2022-11-16T03:33:44.262Z,12.20
2022-11-16T03:36:27.774Z,12.30
2022-11-16T03:38:59.628Z,12.30
2022-11-16T03:41:30.076Z,12.40
2022-11-16T03:44:00.046Z,12.40
2022-11-16T03:46:28.880Z,12.40
2022-11-16T03:49:01.473Z,12.50
2022-11-16T03:51:34.510Z,12.60
2022-11-16T03:54:03.377Z,12.60
2022-11-16T03:56:34.293Z,12.60
2022-11-16T03:59:04.700Z,12.60
2022-11-16T04:01:33.665Z,12.60
2022-11-16T04:04:02.609Z,12.60
2022-11-16T04:06:49.419Z,12.60
2022-11-16T04:09:24.090Z,12.50
2022-11-16T04:12:10.882Z,12.50
2022-11-16T04:14:58.335Z,12.60
2022-11-16T04:17:51.551Z,12.60
2022-11-16T04:20:39.561Z,12.60
2022-11-16T04:23:34.294Z,12.60
2022-11-16T04:26:07.670Z,12.60
2022-11-16T04:28:38.668Z,12.60
2022-11-16T04:31:26.057Z,12.70
2022-11-16T04:34:26.611Z,12.70
2022-11-16T04:37:16.682Z,12.70
2022-11-16T04:39:44.673Z,12.60
2022-11-16T04:42:19.828Z,12.70
2022-11-16T04:45:09.509Z,12.60
2022-11-16T04:47:44.980Z,12.70
2022-11-16T04:50:14.491Z,12.70
2022-11-16T04:52:43.500Z,12.70
2022-11-16T04:55:14.528Z,12.70
2022-11-16T04:57:44.980Z,12.70
2022-11-16T05:00:15.154Z,12.70
2022-11-16T05:02:43.251Z,12.70
2022-11-16T05:05:12.421Z,12.60
2022-11-16T05:07:43.819Z,12.60
2022-11-16T05:10:18.680Z,12.50
2022-11-16T05:12:47.214Z,12.50
2022-11-16T05:15:17.720Z,12.60
2022-11-16T05:17:46.974Z,12.60
2022-11-16T05:20:39.308Z,12.60
2022-11-16T05:23:29.062Z,12.50
2022-11-16T05:26:00.905Z,12.50
2022-11-16T05:28:29.871Z,12.60
2022-11-16T05:30:59.292Z,12.60
2022-11-16T05:33:30.339Z,12.60
2022-11-16T05:35:59.011Z,12.60
2022-11-16T05:38:32.267Z,12.60
2022-11-16T05:41:02.261Z,12.60
2022-11-16T05:43:30.593Z,12.60
2022-11-16T05:46:19.039Z,12.60
2022-11-16T05:48:47.385Z,12.60
2022-11-16T05:51:15.851Z,12.60
2022-11-16T05:53:45.062Z,12.60
2022-11-16T05:56:18.024Z,12.60
2022-11-16T05:58:46.943Z,12.60
2022-11-16T06:01:16.056Z,12.60
2022-11-16T06:03:44.537Z,12.50
2022-11-16T06:06:12.736Z,12.50
2022-11-16T06:08:41.324Z,12.50
2022-11-16T06:11:13.855Z,12.50
2022-11-16T06:13:42.395Z,12.60
2022-11-16T06:16:11.305Z,12.60
2022-11-16T06:18:42.755Z,12.60
2022-11-16T06:21:11.682Z,12.60
2022-11-16T06:23:40.144Z,12.60
2022-11-16T06:26:08.633Z,12.60
2022-11-16T06:28:37.777Z,12.60
2022-11-16T06:31:06.403Z,12.60
2022-11-16T06:33:39.295Z,12.60
2022-11-16T06:36:12.844Z,12.60
2022-11-16T06:38:42.425Z,12.60
2022-11-16T06:41:11.055Z,12.60
2022-11-16T06:43:44.954Z,12.60
2022-11-16T06:46:15.581Z,12.60
2022-11-16T06:48:43.831Z,12.60
2022-11-16T06:51:15.552Z,12.60
2022-11-16T06:53:43.900Z,12.60
2022-11-16T06:56:15.395Z,12.70
2022-11-16T06:58:53.067Z,12.60
2022-11-16T07:01:21.965Z,12.60
2022-11-16T07:03:51.752Z,12.60
2022-11-16T07:06:20.691Z,12.70
2022-11-16T07:08:48.680Z,12.70
2022-11-16T07:11:20.834Z,12.70
2022-11-16T07:13:49.397Z,12.70
2022-11-16T07:16:18.812Z,12.80
2022-11-16T07:18:56.585Z,12.80
2022-11-16T07:21:26.060Z,12.80
2022-11-16T07:23:56.115Z,12.90
2022-11-16T07:26:24.458Z,13.00
2022-11-16T07:29:01.903Z,13.10
2022-11-16T07:31:31.231Z,13.20
2022-11-16T07:34:18.524Z,13.20
2022-11-16T07:36:51.862Z,13.20
2022-11-16T07:39:22.242Z,13.30
2022-11-16T07:41:53.143Z,13.30
2022-11-16T07:44:29.093Z,13.20
2022-11-16T07:47:09.094Z,13.20
2022-11-16T07:49:37.768Z,13.20
2022-11-16T07:52:11.440Z,13.30
2022-11-16T07:54:59.535Z,13.30
2022-11-16T07:57:54.301Z,13.20
2022-11-16T08:00:24.682Z,13.20
2022-11-16T08:03:00.456Z,13.20
2022-11-16T08:05:29.182Z,13.30
2022-11-16T08:07:57.720Z,13.30
2022-11-16T08:10:27.641Z,13.40
2022-11-16T08:12:56.096Z,13.50
2022-11-16T08:15:26.273Z,13.50
2022-11-16T08:17:54.436Z,13.50
2022-11-16T08:20:23.167Z,13.50
2022-11-16T08:22:52.489Z,13.60
2022-11-16T08:25:20.595Z,13.70
2022-11-16T08:27:50.190Z,13.80
2022-11-16T08:30:21.390Z,14.10
2022-11-16T08:32:50.234Z,14.50
2022-11-16T08:35:18.796Z,14.40
2022-11-16T08:37:47.175Z,14.30
2022-11-16T08:40:16.433Z,14.40
2022-11-16T08:42:44.855Z,14.50
2022-11-16T08:45:14.347Z,14.20
2022-11-16T08:47:43.608Z,14.40
2022-11-16T08:50:11.766Z,14.30
2022-11-16T08:52:39.784Z,14.30
2022-11-16T08:55:08.451Z,14.20
2022-11-16T08:57:37.066Z,14.10
2022-11-16T09:00:12.321Z,14.30
2022-11-16T09:02:40.817Z,14.50
2022-11-16T09:05:12.105Z,14.60
2022-11-16T09:07:43.539Z,14.70
2022-11-16T09:10:12.651Z,15.00
2022-11-16T09:12:40.713Z,15.00
2022-11-16T09:15:09.617Z,15.00
2022-11-16T09:17:37.542Z,15.50
2022-11-16T09:20:06.513Z,15.90
2022-11-16T09:22:35.046Z,16.10
2022-11-16T09:25:03.745Z,16.30
2022-11-16T09:27:32.649Z,16.40
2022-11-16T09:30:01.076Z,16.10
2022-11-16T09:32:30.398Z,16.00
2022-11-16T09:34:58.804Z,15.80
2022-11-16T09:37:26.991Z,15.90
2022-11-16T09:39:55.739Z,16.00
2022-11-16T09:43:18.600Z,16.10
2022-11-16T09:45:58.618Z,16.20
2022-11-16T09:48:27.956Z,16.30
2022-11-16T09:51:02.033Z,16.10
2022-11-16T09:53:34.291Z,15.90
2022-11-16T09:56:09.076Z,15.70
2022-11-16T09:58:54.937Z,15.70
2022-11-16T10:01:25.850Z,15.60
2022-11-16T10:04:05.054Z,15.70
2022-11-16T10:06:49.726Z,15.80
2022-11-16T10:09:18.208Z,15.80
2022-11-16T10:11:58.665Z,15.80
2022-11-16T10:15:04.867Z,15.80
2022-11-16T10:17:52.212Z,15.80
2022-11-16T10:20:58.362Z,15.70
2022-11-16T10:23:26.678Z,15.80
2022-11-16T10:26:05.482Z,15.90
2022-11-16T10:28:52.684Z,16.00
2022-11-16T10:31:44.971Z,16.10
2022-11-16T10:34:22.584Z,16.10
2022-11-16T10:36:50.688Z,15.90
2022-11-16T10:39:20.804Z,15.90
2022-11-16T10:41:53.346Z,16.00
2022-11-16T10:44:46.302Z,16.00
2022-11-16T10:47:58.320Z,16.00
2022-11-16T10:50:38.146Z,16.10
2022-11-16T10:53:07.605Z,16.10
2022-11-16T10:55:36.635Z,16.00
2022-11-16T10:58:06.315Z,16.00
2022-11-16T11:00:51.817Z,15.80
2022-11-16T11:03:31.657Z,15.80
2022-11-16T11:06:00.368Z,15.90
2022-11-16T11:08:31.240Z,15.90
2022-11-16T11:11:25.324Z,15.90
2022-11-16T11:14:14.767Z,16.00
2022-11-16T11:16:43.248Z,16.10
2022-11-16T11:19:28.470Z,16.10
2022-11-16T11:22:00.633Z,15.90
2022-11-16T11:24:45.574Z,15.90
2022-11-16T11:27:20.907Z,15.90
2022-11-16T11:29:54.239Z,16.00
2022-11-16T11:32:24.821Z,16.10
2022-11-16T11:34:56.286Z,15.90
2022-11-16T11:37:37.319Z,15.80
2022-11-16T11:40:17.502Z,15.70
2022-11-16T11:43:04.400Z,15.60
2022-11-16T11:45:35.540Z,15.60
2022-11-16T11:48:31.158Z,15.60
2022-11-16T11:51:22.737Z,15.60
2022-11-16T11:53:59.381Z,15.40
2022-11-16T11:56:30.977Z,15.40
2022-11-16T11:58:59.176Z,15.40
2022-11-16T12:01:47.051Z,15.50
2022-11-16T12:04:32.270Z,15.50
2022-11-16T12:07:06.792Z,15.50
2022-11-16T12:09:43.313Z,15.40
2022-11-16T12:12:25.461Z,15.40
2022-11-16T12:15:21.013Z,15.40
2022-11-16T12:18:18.775Z,15.30
2022-11-16T12:21:17.345Z,15.30
2022-11-16T12:24:04.596Z,15.20
2022-11-16T12:26:39.300Z,15.10
2022-11-16T12:29:17.172Z,15.10
2022-11-16T12:32:06.034Z,15.10
2022-11-16T12:34:37.254Z,15.00
2022-11-16T12:37:18.836Z,15.00
2022-11-16T12:40:07.565Z,15.10
2022-11-16T12:42:45.929Z,15.10
2022-11-16T12:45:26.421Z,15.10
2022-11-16T12:48:32.967Z,15.00
2022-11-16T12:51:25.237Z,15.10
2022-11-16T12:55:19.186Z,15.10
2022-11-16T12:57:55.438Z,14.90
2022-11-16T13:00:24.034Z,15.00
2022-11-16T13:03:11.340Z,15.00
2022-11-16T13:05:44.429Z,15.10
2022-11-16T13:08:39.957Z,15.10
2022-11-16T13:11:22.627Z,15.00
2022-11-16T13:13:55.798Z,14.90
2022-11-16T13:16:25.094Z,14.90
2022-11-16T13:18:55.645Z,14.90
2022-11-16T13:21:43.923Z,14.90
2022-11-16T13:24:20.926Z,14.90
2022-11-16T13:27:14.917Z,14.90
2022-11-16T13:30:01.397Z,15.00
2022-11-16T13:32:38.084Z,15.00
2022-11-16T13:35:12.190Z,14.90
2022-11-16T13:37:40.683Z,14.90
2022-11-16T13:40:15.018Z,14.90
2022-11-16T13:42:58.206Z,14.90
2022-11-16T13:45:31.934Z,14.90
2022-11-16T13:48:03.609Z,14.80
2022-11-16T13:50:39.232Z,14.80
2022-11-16T13:56:09.232Z,14.80
2022-11-16T13:58:44.156Z,14.90
2022-11-16T14:01:17.114Z,14.90
2022-11-16T14:03:52.729Z,14.90
2022-11-16T14:06:20.577Z,14.80
2022-11-16T14:08:51.814Z,14.80
2022-11-16T14:11:38.310Z,14.80
2022-11-16T14:14:11.967Z,14.80
2022-11-16T14:16:50.437Z,14.80
2022-11-16T14:19:47.748Z,14.80
2022-11-16T14:22:54.870Z,14.90
2022-11-16T14:25:25.717Z,14.90
2022-11-16T14:28:13.472Z,14.90
2022-11-16T14:31:04.473Z,14.80
2022-11-16T14:33:35.134Z,14.90
2022-11-16T14:36:06.459Z,14.80
2022-11-16T14:38:38.832Z,14.80
2022-11-16T14:41:20.478Z,14.80
2022-11-16T14:43:53.939Z,14.80
2022-11-16T14:46:35.823Z,14.90
2022-11-16T14:49:04.879Z,14.90
2022-11-16T14:51:41.314Z,14.90
2022-11-16T14:54:30.193Z,14.90
2022-11-16T14:57:13.641Z,14.90
2022-11-16T14:59:41.680Z,14.90
2022-11-16T15:02:28.124Z,14.80
2022-11-16T15:04:56.182Z,14.80
2022-11-16T15:07:26.323Z,14.80
2022-11-16T15:09:59.296Z,14.80
2022-11-16T15:12:43.140Z,14.80
2022-11-16T15:15:11.188Z,14.80
2022-11-16T15:17:52.092Z,14.80
2022-11-16T15:20:21.858Z,14.80
2022-11-16T15:22:54.671Z,14.90
2022-11-16T15:25:33.523Z,14.80
2022-11-16T15:28:22.115Z,14.80
2022-11-16T15:31:05.024Z,14.80
2022-11-16T15:33:42.945Z,14.80
2022-11-16T15:36:24.384Z,14.80
2022-11-16T15:38:58.772Z,14.80
2022-11-16T15:41:29.630Z,14.80
2022-11-16T15:44:16.521Z,14.70
2022-11-16T15:46:51.882Z,14.70
2022-11-16T15:49:22.861Z,14.70
2022-11-16T15:51:50.831Z,14.70
2022-11-16T15:54:30.857Z,14.70
2022-11-16T15:57:12.259Z,14.70
2022-11-16T15:59:40.552Z,14.70
2022-11-16T16:02:30.254Z,14.70
2022-11-16T16:04:58.615Z,14.60
2022-11-16T16:07:40.987Z,14.60
2022-11-16T16:10:18.871Z,14.60
2022-11-16T16:12:50.146Z,14.60
2022-11-16T16:15:34.195Z,14.60
2022-11-16T16:18:05.193Z,14.50
2022-11-16T16:20:34.359Z,14.60
2022-11-16T16:23:11.682Z,14.50
2022-11-16T16:25:39.587Z,14.50
2022-11-16T16:28:11.609Z,14.50
2022-11-16T16:30:39.755Z,14.50
2022-11-16T16:33:17.636Z,14.50
2022-11-16T16:35:49.789Z,14.50
2022-11-16T16:38:17.783Z,14.50
2022-11-16T16:40:45.780Z,14.50
2022-11-16T16:43:14.172Z,14.50
2022-11-16T16:45:43.919Z,14.40
2022-11-16T16:48:12.843Z,14.40
2022-11-16T16:50:40.815Z,14.40
2022-11-16T16:53:14.412Z,14.40
2022-11-16T16:55:43.752Z,14.40
2022-11-16T16:58:12.813Z,14.40
2022-11-16T17:00:41.923Z,14.40
2022-11-16T17:03:10.227Z,14.30
2022-11-16T17:05:38.469Z,14.30
2022-11-16T17:08:06.964Z,14.30
2022-11-16T17:10:36.977Z,14.30
2022-11-16T17:13:05.244Z,14.30
2022-11-16T17:15:33.276Z,14.20
2022-11-16T17:18:01.164Z,14.20
2022-11-16T17:20:29.222Z,14.20
2022-11-16T17:22:58.182Z,14.20
2022-11-16T17:25:26.254Z,14.10
2022-11-16T17:27:54.288Z,14.10
2022-11-16T17:30:22.297Z,14.10
2022-11-16T17:32:50.279Z,14.10
2022-11-16T17:35:18.178Z,14.00
2022-11-16T17:37:46.718Z,14.00
2022-11-16T17:40:15.159Z,14.00
2022-11-16T17:42:43.342Z,14.00
2022-11-16T17:45:12.113Z,13.90
2022-11-16T17:47:40.906Z,14.00
2022-11-16T17:50:09.365Z,14.00
2022-11-16T17:52:37.309Z,14.00
2022-11-16T17:55:05.721Z,14.00
2022-11-16T17:57:33.795Z,13.90
2022-11-16T18:00:02.543Z,14.00
2022-11-16T18:02:32.782Z,14.00
2022-11-16T18:05:00.708Z,14.00
2022-11-16T18:07:30.823Z,13.90
2022-11-16T18:09:58.968Z,13.90
2022-11-16T18:12:26.916Z,13.90
2022-11-16T18:15:26.285Z,13.80
2022-11-16T18:17:43.432Z,13.80
2022-11-16T18:20:12.290Z,13.80
2022-11-16T18:22:40.772Z,13.80
2022-11-16T18:25:08.937Z,13.90
2022-11-16T18:27:37.141Z,13.80
2022-11-16T18:30:06.212Z,13.80
2022-11-16T18:32:34.320Z,13.90
2022-11-16T18:35:04.833Z,13.90
2022-11-16T18:37:32.972Z,13.90
2022-11-16T18:40:01.445Z,13.90
2022-11-16T18:42:31.150Z,13.80
2022-11-16T18:44:59.195Z,13.80
2022-11-16T18:47:27.541Z,13.80
2022-11-16T18:49:55.676Z,13.80
2022-11-16T18:52:23.752Z,13.90
2022-11-16T18:54:52.100Z,13.90
2022-11-16T18:57:20.099Z,13.80
2022-11-16T18:59:48.076Z,13.80
2022-11-16T19:02:16.256Z,13.70
2022-11-16T19:04:44.590Z,13.70
2022-11-16T19:07:13.242Z,13.70
2022-11-16T19:09:41.259Z,13.70
2022-11-16T19:12:09.195Z,13.70
2022-11-16T19:14:37.293Z,13.60
2022-11-16T19:17:06.058Z,13.60
2022-11-16T19:19:34.390Z,13.60
2022-11-16T19:22:02.372Z,13.70
2022-11-16T19:24:30.279Z,13.70
2022-11-16T19:26:58.608Z,13.60
2022-11-16T19:29:26.569Z,13.50
2022-11-16T19:31:54.584Z,13.50
2022-11-16T19:34:22.968Z,13.50
2022-11-16T19:36:51.155Z,13.30
2022-11-16T19:39:19.388Z,13.30
2022-11-16T19:41:47.410Z,13.20
2022-11-16T19:44:15.467Z,13.20
2022-11-16T19:46:43.566Z,13.10
2022-11-16T19:49:19.643Z,13.10
2022-11-16T19:51:49.337Z,13.10
2022-11-16T19:54:18.022Z,13.10
2022-11-16T19:56:48.274Z,13.00
2022-11-16T19:59:20.285Z,13.10
2022-11-16T20:01:48.599Z,13.10
2022-11-16T20:04:16.848Z,13.10
2022-11-16T20:06:45.148Z,13.20
2022-11-16T20:09:13.506Z,13.10
2022-11-16T20:11:41.978Z,13.10
2022-11-16T20:14:12.115Z,13.00
2022-11-16T20:16:42.113Z,13.10
2022-11-16T20:19:11.233Z,13.10
2022-11-16T20:21:42.442Z,13.10
2022-11-16T20:24:15.828Z,13.00
2022-11-16T20:26:49.241Z,13.00
2022-11-16T20:29:19.109Z,12.90
2022-11-16T20:31:47.994Z,12.90
2022-11-16T20:34:18.615Z,12.90
2022-11-16T20:36:48.008Z,12.90
2022-11-16T20:39:18.390Z,12.80
2022-11-16T20:41:48.015Z,12.80
2022-11-16T20:44:22.362Z,12.70
2022-11-16T20:46:54.487Z,12.80
2022-11-16T20:49:22.551Z,12.90
2022-11-16T20:51:51.415Z,12.70
2022-11-16T20:54:19.486Z,12.80
2022-11-16T20:56:49.685Z,12.80
2022-11-16T20:59:18.227Z,12.70
2022-11-16T21:01:48.845Z,12.70
2022-11-16T21:04:17.166Z,12.80
2022-11-16T21:06:45.506Z,12.70
2022-11-16T21:09:22.787Z,12.70
2022-11-16T21:15:02.166Z,12.70
2022-11-16T21:17:31.349Z,12.60
2022-11-16T21:20:25.415Z,12.60
2022-11-16T21:22:47.890Z,12.50
2022-11-16T21:25:17.154Z,12.50
2022-11-16T21:27:46.566Z,12.50
2022-11-16T21:30:14.744Z,12.40
2022-11-16T21:32:43.236Z,12.50
2022-11-16T21:35:11.402Z,12.50
2022-11-16T21:37:39.391Z,12.50
2022-11-16T21:40:08.750Z,12.50
2022-11-16T21:42:36.684Z,12.50
2022-11-16T21:45:05.039Z,12.40
2022-11-16T21:47:33.082Z,12.40
2022-11-16T21:50:30.594Z,12.30
2022-11-16T21:52:49.517Z,12.30
2022-11-16T21:55:18.032Z,12.20
2022-11-16T21:57:48.286Z,12.30
2022-11-16T22:00:16.549Z,12.30
2022-11-16T22:02:44.595Z,12.20
2022-11-16T22:05:31.039Z,12.20
2022-11-16T22:08:05.271Z,12.20
2022-11-16T22:10:33.989Z,12.20
2022-11-16T22:13:02.058Z,12.20
2022-11-16T22:15:30.320Z,12.20
2022-11-16T22:17:58.573Z,12.30
2022-11-16T22:20:26.911Z,12.30
2022-11-16T22:22:54.910Z,12.20
2022-11-16T22:25:22.959Z,12.10
2022-11-16T22:28:20.216Z,12.10
2022-11-16T22:30:39.743Z,12.10
2022-11-16T22:33:07.774Z,12.10
2022-11-16T22:35:37.770Z,12.10
2022-11-16T22:38:06.420Z,12.00
2022-11-16T22:40:34.407Z,12.00
2022-11-16T22:43:02.715Z,12.10
2022-11-16T22:45:30.634Z,12.20
2022-11-16T22:47:58.542Z,12.20
2022-11-16T22:50:26.582Z,12.10
2022-11-16T22:52:58.742Z,12.00
2022-11-16T22:55:26.837Z,11.80
2022-11-16T22:57:54.954Z,11.80
2022-11-16T23:00:23.642Z,11.80
2022-11-16T23:02:55.428Z,11.80
2022-11-16T23:05:23.951Z,11.70
2022-11-16T23:07:51.902Z,11.70
2022-11-16T23:10:21.032Z,11.80
2022-11-16T23:13:07.880Z,11.80
2022-11-16T23:15:51.038Z,11.70
2022-11-16T23:18:19.735Z,11.60
2022-11-16T23:21:06.104Z,11.60
2022-11-16T23:23:53.196Z,11.60
2022-11-16T23:26:43.099Z,11.60
2022-11-16T23:29:11.688Z,11.70
2022-11-16T23:31:39.597Z,11.80
2022-11-16T23:34:07.589Z,11.80
2022-11-16T23:36:35.977Z,11.80
2022-11-16T23:39:04.367Z,11.80
2022-11-16T23:41:50.522Z,11.80
2022-11-16T23:44:18.447Z,11.80
2022-11-16T23:46:46.443Z,11.70
2022-11-16T23:49:14.610Z,11.70
2022-11-16T23:51:43.102Z,11.70
2022-11-16T23:54:11.460Z,11.60
2022-11-16T23:56:39.391Z,11.60
2022-11-16T23:59:07.926Z,11.60
